الصفحة الرئيسية
METAR-TAF:

METAR-TAF

مطار :

مطار بشار - بودغن بن علي لطفي

بشار, الجزائر

دائرة عرض: 31-37N, خط طول: 002-14W, ارتفاع: 773 متر

مراقبة الطقس الحالي

تاريخ ووقت الإصدار 1ساعة و 2 دقيقة قبل الساعة 18:00UTC
ريح 4 عقدة من الشمال الغربي
درجة الحرارة 21°درجة مئوية
الرطوبة 20%
ضغط 1006 hPa
الرؤية 10 كم أو أكثر
غيوم متفرقة على ارتفاع 3300 قدم
غيوم متفرقة على ارتفاع 10000 قدم

METAR: DAOR 221800Z 31004KT 9999 SCT033 SCT100 21/M03 Q1006

زمن: 20:02 (19:02 UTC)

توقعات

تاريخ ووقت الإصدار 2ساعات و 2 دقيقة قبل الساعة 17:00UTC
التوقعات صالحة من22 الساعة 18 UTC إلى 23 الساعة 03 UTC
ريح 9 عقدة من الغرب/الشمال الغربي
الرؤية 10 كم أو أكثر
غيوم متفرقة على ارتفاع 3300 قدم
غيوم متفرقة على ارتفاع 10000 قدم
نظرية الاحتمالات 30% :
مؤقت
من 22 الساعة 18 UTC إلى 22 الساعة 21 UTC
غيوم قليلة على ارتفاع 3000 قدم, مزن ركامية عمودية.

TAF: DAOR 221700Z 2218/2303 30009KT 9999 SCT033 SCT100 PROB30 TEMPO 2218/2221 FEW030TCU

أرصاد الطقس والتوقعات من أكثر من 4000 مطار (تقارير الطقس للمطار METAR والتنبؤ بالطقس بالمطارTAF).

المحطات المتاحة هي النقط الصفراء والحمراء على الخريطة.

حرك المؤشر فوق النقطة لمعرفة اسم المحطة.

ثم انقر لمعرفة أرصاد وتوقعات الطقس.

لتغيير الخارطة: اضغط على الأزرار الخضراء مع رمز الصليب الأسود للتكبير. على الزر الأخضر مع شرطة للتصغير، أو على الأسهم الخضراء للخرائط المجاورة.


METAR-TAF: